This is the latest recevied weather packets stored in our database for station/object 4S6DRJ-13. If no packets are shown the sender has not sent any weather packets the latest 10 day(s).
| Time | Temp. | Humidity | Pressure | Rain* | Wind** | Luminosity | Snow |
|---|---|---|---|---|---|---|---|
| 1788134131 | 27.78° C | 84% | 1009.2 hPa | 0 mm | 0.89 m/s, 332° | 0 W/m² | - |
| 1788134069 | 27.78° C | 84% | 1009.1 hPa | 0 mm | 0.45 m/s, 224° | 0 W/m² | - |
| 1788134009 | 27.78° C | 84% | 1009.1 hPa | 0 mm | 0.89 m/s, 264° | 0 W/m² | - |
| 1788133948 | 27.78° C | 84% | 1009.2 hPa | 0 mm | 0.89 m/s, 224° | 0 W/m² | - |
| 1788133887 | 27.78° C | 84% | 1009.1 hPa | 0 mm | 0.89 m/s, 327° | 0 W/m² | - |
| 1788133826 | 27.78° C | 84% | 1009 hPa | 0 mm | 0.45 m/s, 210° | 0 W/m² | - |
| 1788133764 | 27.78° C | 84% | 1009.2 hPa | 0 mm | 0.89 m/s, 227° | 0 W/m² | - |
| 1788133704 | 27.78° C | 84% | 1009.1 hPa | 0 mm | 0.89 m/s, 236° | 0 W/m² | - |
| 1788133643 | 27.78° C | 84% | 1009.1 hPa | 0 mm | 0.89 m/s, 231° | 0 W/m² | - |
| 1788133582 | 27.78° C | 84% | 1008.9 hPa | 0 mm | 0.89 m/s, 231° | 0 W/m² | - |
| 1788133521 | 27.78° C | 84% | 1009 hPa | 0 mm | 0.89 m/s, 236° | 0 W/m² | - |
| 1788133460 | 27.78° C | 84% | 1009 hPa | 0 mm | 0.89 m/s, 284° | 0 W/m² | - |
| 1788133399 | 27.78° C | 84% | 1009 hPa | 0 mm | 0.89 m/s, 249° | 0 W/m² | - |
| 1788133337 | 27.78° C | 84% | 1009.1 hPa | 0 mm | 0.45 m/s, 219° | 0 W/m² | - |
| 1788133277 | 27.78° C | 84% | 1009 hPa | 0 mm | 0.45 m/s, 262° | 0 W/m² | - |
| 1788133216 | 27.78° C | 84% | 1009.2 hPa | 0 mm | 0.89 m/s, 276° | 0 W/m² | - |
| 1788133155 | 27.78° C | 84% | 1009.1 hPa | 0 mm | 0.45 m/s, 293° | 0 W/m² | - |
| 1788133093 | 27.78° C | 84% | 1009 hPa | 0 mm | 1.34 m/s, 287° | 0 W/m² | - |
| 1788133033 | 27.78° C | 84% | 1009.1 hPa | 0 mm | 0.45 m/s, 132° | 0 W/m² | - |
| 1788132971 | 27.78° C | 84% | 1009.2 hPa | 0 mm | 0.89 m/s, 228° | 0 W/m² | - |
| 1788132911 | 27.78° C | 84% | 1008.9 hPa | 0 mm | 0.45 m/s, 204° | 0 W/m² | - |
| 1788132850 | 27.78° C | 84% | 1009.1 hPa | 0 mm | 0 m/s | 0 W/m² | - |
| 1788132789 | 27.78° C | 84% | 1008.9 hPa | 0 mm | 0.45 m/s, 149° | 0 W/m² | - |
| 1788132729 | 27.78° C | 84% | 1009 hPa | 0 mm | 0.89 m/s, 273° | 0 W/m² | - |
| 1788132667 | 27.78° C | 84% | 1008.9 hPa | 0 mm | 1.34 m/s, 271° | 0 W/m² | - |
* Rain latest hour (hover to see other rain measurements)
** Current wind speed in m/s (hover to see current wind gust speed)